Mineral City, Ohio
Current Conditions -  °F | °C
As of 12:53 PM on Monday 22 Dec 2014 (Local Time) from KPHD Reporting Station
Scattered Clouds Scattered Clouds  
Wind Chill: 41°   Ceiling: Unl
Heat Index: 41°   Visibility: 10mi
Dew Point: 31°   Wind: 3mph
Humidity: 67%   Direction: NA
Pressure: 30.02"   Gusts: NA
Location:  40.6°N, 81.36°W
Report Text: KPHD 221753Z AUTO VRB03KT 10SM SCT065 05/M01 A3002 RMK AO2 SLP175 T00501006 10050 21061 58027
Loading
Personal Weather Stations






























Interactive Weather Map New forecast layout! Learn more

10-Day Weather Forecast

Advertisements
Track Severe Weather on mobile